マナウス の空港の天気 - METARとTAF

エドワルド ゴメス国際空港(マナウス) ( SBEG / MAO ) - ブラジル アマゾナス州マナウス
飛行場実況気象(Metar)
観測時間04/25 02:00 AMT (04/25 06:00 UTC)
風向・風速静穏 0m/s
視程10km以上
天気現象
少しの雲 雲底高度 300m
全天の4割程度の雲 雲底高度 2440m
気温23℃
湿度100%
気圧1013hPa
METARSBEG 250600Z 00000KT 9999 FEW010 SCT080 23/23 Q1013
過去の天気等 Google飛行場航空写真 Wunderground天気予報

過去48時間のMETAR

飛行場予報(TAF)
発表時間: 4/25 00:00 AMT (4/25 04:00 UTC)
予報対象時間: 25日2時 AMT ~ 26日2時 AMT
風向・風速静穏
視程10km以上
少しの雲 雲底高度 300m
25日7時 AMT ~ 25日9時 AMT に徐々に
風向・風速東北東 3m/s
全天の4割程度の雲 雲底高度 610m
25日11時 AMT ~ 25日13時 AMT に徐々に
風向・風速東 4m/s
全天の4割程度の雲 雲底高度 610m
少しの塔状積雲 雲底高度 760m
25日14時 AMT から 確率 30% で
天気現象
全天の4割程度の雲 雲底高度 610m
少しの積乱雲 雲底高度 760m
25日18時 AMT ~ 25日20時 AMT に徐々に
風向・風速静穏
少しの雲 雲底高度 610m
TAF SBEG 250400Z 2506/2606 00000KT 9999 FEW010 TN23/2508Z TX30/2518Z
BECMG 2511/2513 06005KT SCT020
BECMG 2515/2517 09008KT SCT020 FEW025TCU
PROB30 2518/2520 TS SCT020 FEW025CB
BECMG 2522/2524 00000KT FEW020 RMK PEH